KAPA

Centennial Airport

Denver, Colorado, USA
METAR KAPA 151553Z 26006KT 10SM FEW140 SCT220 26/10 A3013 RMK AO2 SLP135 ACSL DSNT NW T02560100
Observed Flight Rules
Aug-15 @ 15:53 UTC (an hour ago) Visual Flight Rules
Wind Visibility Clouds
260° at 6 knots 10 miles
  • Few at 14,000' AGL
  • Scattered at 22,000' AGL
Temperatures Readings
Current 26°C / 79°F
Dewpoint 10°C / 50°F
Humidity 37%
Altimeter 30.13" Hg
Pressure 1013.5 hPa
Elevation 1775
METAR KAPA 151553Z 26006KT 10SM FEW140 SCT220 26/10 A3013 RMK AO2 SLP135 ACSL DSNT NW T02560100
Observed Flight Rules
Aug-15 @ 15:53 UTC
(an hour ago)
VFR
Wind Visibility
260° at 6 knots 10 miles
Clouds
  • Few at 14,000' AGL
  • Scattered at 22,000' AGL
Temperature Dewpoint
26°C / 79°F 10°C / 50°F
Humidity Altimeter Pressure
37% 30.13" Hg 1013.5 hPa